createdAt,value
2023-04-29T00:03:56.261Z,2.90
2023-04-29T00:08:58.534Z,3.23
2023-04-29T00:14:00.197Z,3.50
2023-04-29T00:19:02.277Z,3.03
2023-04-29T00:24:04.001Z,3.83
2023-04-29T00:29:05.769Z,4.37
2023-04-29T00:34:07.520Z,3.63
2023-04-29T00:39:09.353Z,3.33
2023-04-29T00:44:11.702Z,3.80
2023-04-29T00:49:13.859Z,4.77
2023-04-29T00:54:18.713Z,5.13
2023-04-29T00:59:21.215Z,4.77
2023-04-29T01:04:23.003Z,4.07
2023-04-29T01:09:42.860Z,4.13
2023-04-29T01:14:50.083Z,3.97
2023-04-29T01:19:55.901Z,6.17
2023-04-29T01:24:58.123Z,5.63
2023-04-29T01:30:24.560Z,4.33
2023-04-29T01:35:42.735Z,4.63
2023-04-29T01:40:56.744Z,4.73
2023-04-29T01:46:00.882Z,4.70
2023-04-29T01:51:02.811Z,2.87
2023-04-29T01:56:05.217Z,3.77
2023-04-29T02:01:20.024Z,5.33
2023-04-29T02:06:22.114Z,6.83
2023-04-29T02:11:29.822Z,4.00
2023-04-29T02:16:32.813Z,4.17
2023-04-29T02:21:40.129Z,3.73
2023-04-29T02:26:41.791Z,5.07
2023-04-29T02:31:43.537Z,5.27
2023-04-29T02:36:45.141Z,8.10
2023-04-29T02:41:46.692Z,5.13
2023-04-29T02:46:49.045Z,6.87
2023-04-29T02:51:51.057Z,8.60
2023-04-29T02:56:53.076Z,9.13
2023-04-29T03:01:54.799Z,8.30
2023-04-29T03:06:56.890Z,9.33
2023-04-29T03:12:04.389Z,10.80
2023-04-29T03:17:05.988Z,11.43
2023-04-29T03:22:11.665Z,10.83
2023-04-29T03:27:14.982Z,10.70
2023-04-29T03:32:16.847Z,7.97
2023-04-29T03:37:19.733Z,10.43
2023-04-29T03:42:28.069Z,9.13
2023-04-29T03:47:30.122Z,12.80
2023-04-29T03:52:32.015Z,12.47
2023-04-29T03:57:40.951Z,12.27
2023-04-29T04:02:45.015Z,13.73
2023-04-29T04:07:47.666Z,13.77
2023-04-29T04:13:30.831Z,14.73
2023-04-29T04:18:33.930Z,14.60
2023-04-29T04:23:36.298Z,17.07
2023-04-29T04:28:39.980Z,17.07
2023-04-29T04:33:46.582Z,14.80
2023-04-29T04:38:49.100Z,15.83
2023-04-29T04:43:50.698Z,18.07
2023-04-29T04:48:59.168Z,18.33
2023-04-29T04:54:02.353Z,19.30
2023-04-29T04:59:06.909Z,18.60
2023-04-29T05:04:11.752Z,16.53
2023-04-29T05:09:13.644Z,15.07
2023-04-29T05:14:15.603Z,13.67
2023-04-29T05:19:17.247Z,15.17
2023-04-29T05:24:20.779Z,15.03
2023-04-29T05:29:23.724Z,14.43
2023-04-29T05:34:30.900Z,19.57
2023-04-29T05:39:33.589Z,14.27
2023-04-29T05:44:44.009Z,14.03
2023-04-29T05:49:45.750Z,14.53
2023-04-29T05:54:49.786Z,16.20
2023-04-29T05:59:55.161Z,14.00
2023-04-29T06:04:58.046Z,14.20
2023-04-29T06:10:07.970Z,11.37
2023-04-29T06:15:10.579Z,11.40
2023-04-29T06:20:12.826Z,12.63
2023-04-29T06:25:15.052Z,12.53
2023-04-29T06:30:22.233Z,11.87
2023-04-29T06:35:24.302Z,7.00
2023-04-29T06:40:45.069Z,10.23
2023-04-29T06:46:06.926Z,10.27
2023-04-29T06:51:32.354Z,11.03
2023-04-29T06:56:35.160Z,6.97
2023-04-29T07:01:37.333Z,7.87
2023-04-29T07:06:40.544Z,6.93
2023-04-29T07:11:42.520Z,5.83
2023-04-29T07:16:44.983Z,5.70
2023-04-29T07:21:46.884Z,5.97
2023-04-29T07:26:48.957Z,5.53
2023-04-29T07:31:51.895Z,5.63
2023-04-29T07:36:53.749Z,6.87
2023-04-29T07:41:55.398Z,6.37
2023-04-29T07:46:57.080Z,5.87
2023-04-29T07:51:58.730Z,6.83
2023-04-29T07:57:00.639Z,6.77
2023-04-29T08:02:02.207Z,6.83
2023-04-29T08:07:04.679Z,5.73
2023-04-29T08:12:06.325Z,5.53
2023-04-29T08:17:10.062Z,7.20
2023-04-29T08:22:12.253Z,7.20
2023-04-29T08:27:15.095Z,7.37
2023-04-29T08:32:17.882Z,6.73
2023-04-29T08:37:20.684Z,6.87
2023-04-29T08:42:33.562Z,7.70
2023-04-29T08:47:35.707Z,8.73
2023-04-29T08:52:37.678Z,9.00
2023-04-29T08:57:41.740Z,9.27
2023-04-29T09:02:50.182Z,7.83
2023-04-29T09:07:52.755Z,8.70
2023-04-29T09:12:58.715Z,8.17
2023-04-29T09:18:00.525Z,7.67
2023-04-29T09:23:04.241Z,7.53
2023-04-29T09:28:16.974Z,9.23
2023-04-29T09:33:18.699Z,7.17
2023-04-29T09:38:21.103Z,8.20
2023-04-29T09:43:24.047Z,7.97
2023-04-29T09:48:32.229Z,8.70
2023-04-29T09:53:38.016Z,9.90
2023-04-29T09:58:40.407Z,8.17
2023-04-29T10:03:42.860Z,7.77
2023-04-29T10:08:46.188Z,10.03
2023-04-29T10:13:49.783Z,10.37
2023-04-29T10:18:57.091Z,8.47
2023-04-29T10:23:59.902Z,8.23
2023-04-29T10:29:02.211Z,8.90
2023-04-29T10:34:03.846Z,10.27
2023-04-29T10:39:10.162Z,9.57
2023-04-29T10:44:11.904Z,9.00
2023-04-29T10:49:13.816Z,9.80
2023-04-29T10:54:17.864Z,9.43
2023-04-29T10:59:33.106Z,9.43
2023-04-29T11:04:34.912Z,12.00
2023-04-29T11:09:38.639Z,11.83
2023-04-29T11:14:49.905Z,10.87
2023-04-29T11:19:52.212Z,12.73
2023-04-29T11:25:06.454Z,10.33
2023-04-29T11:30:08.838Z,11.10
2023-04-29T11:35:12.013Z,13.60
2023-04-29T11:40:14.454Z,13.93
2023-04-29T11:45:19.807Z,15.80
2023-04-29T11:50:21.795Z,13.47
2023-04-29T11:55:25.808Z,12.90
2023-04-29T12:00:27.502Z,17.43
2023-04-29T12:05:29.544Z,11.73
2023-04-29T12:10:31.395Z,17.57
2023-04-29T12:15:33.064Z,17.50
2023-04-29T12:20:34.950Z,17.63
2023-04-29T12:25:36.542Z,19.07
2023-04-29T12:30:38.244Z,19.93
2023-04-29T12:35:39.894Z,21.40
2023-04-29T12:40:41.532Z,21.47
2023-04-29T12:45:43.303Z,24.97
2023-04-29T12:50:49.577Z,22.57
2023-04-29T12:55:51.776Z,23.37
2023-04-29T13:00:53.438Z,27.57
2023-04-29T13:05:55.189Z,24.37
2023-04-29T13:10:56.848Z,26.70
2023-04-29T13:15:58.550Z,25.67
2023-04-29T13:21:01.820Z,22.87
2023-04-29T13:26:05.825Z,15.00
2023-04-29T13:31:07.817Z,19.03
2023-04-29T13:36:09.746Z,15.87
2023-04-29T13:41:16.839Z,14.77
2023-04-29T13:46:20.914Z,14.63
2023-04-29T13:52:06.690Z,15.67
2023-04-29T13:57:30.187Z,12.73
2023-04-29T14:02:23.287Z,10.77
2023-04-29T14:07:26.347Z,11.57
2023-04-29T14:12:28.003Z,9.57
2023-04-29T14:17:30.243Z,11.67
2023-04-29T14:22:32.058Z,11.43
2023-04-29T14:27:35.648Z,13.37
2023-04-29T14:32:37.273Z,14.57
2023-04-29T14:37:39.513Z,14.53
2023-04-29T14:42:41.204Z,15.27
2023-04-29T14:47:43.839Z,12.80
2023-04-29T14:52:46.141Z,14.70
2023-04-29T14:57:47.915Z,13.17
2023-04-29T15:02:50.824Z,10.00
2023-04-29T15:07:52.493Z,13.60
2023-04-29T15:12:54.662Z,15.97
2023-04-29T15:17:56.941Z,11.87
2023-04-29T15:22:58.715Z,11.73
2023-04-29T15:28:01.263Z,10.93
2023-04-29T15:33:04.497Z,11.90
2023-04-29T15:38:06.999Z,10.73
2023-04-29T15:43:08.605Z,11.03
2023-04-29T15:48:10.712Z,13.30
2023-04-29T15:53:12.363Z,10.63
2023-04-29T15:58:17.868Z,9.27
2023-04-29T16:03:19.575Z,13.53
2023-04-29T16:08:21.272Z,10.77
2023-04-29T16:13:22.993Z,10.20
2023-04-29T16:18:24.694Z,10.47
2023-04-29T16:23:26.263Z,10.53
2023-04-29T16:28:27.958Z,11.60
2023-04-29T16:33:29.672Z,11.50
2023-04-29T16:38:32.077Z,12.40
2023-04-29T16:43:34.055Z,9.67
2023-04-29T16:48:35.879Z,14.13
2023-04-29T16:53:37.538Z,14.63
2023-04-29T16:58:39.247Z,13.93
2023-04-29T17:03:41.184Z,13.40
2023-04-29T17:08:43.146Z,10.57
2023-04-29T17:13:44.969Z,10.27
2023-04-29T17:18:46.653Z,13.77
2023-04-29T17:23:48.483Z,13.10
2023-04-29T17:28:50.160Z,11.80
2023-04-29T17:34:04.913Z,10.70
2023-04-29T17:39:09.904Z,10.43
2023-04-29T17:44:11.701Z,12.83
2023-04-29T17:49:13.390Z,10.63
2023-04-29T17:54:15.103Z,11.07
2023-04-29T17:59:16.763Z,11.80
2023-04-29T18:04:18.366Z,9.03
2023-04-29T18:09:20.490Z,10.67
2023-04-29T18:14:23.219Z,13.17
2023-04-29T18:19:24.939Z,13.00
2023-04-29T18:24:26.657Z,11.90
2023-04-29T18:29:28.353Z,11.00
2023-04-29T18:34:30.650Z,10.60
2023-04-29T18:39:32.261Z,11.50
2023-04-29T18:44:34.201Z,14.27
2023-04-29T18:49:38.068Z,16.03
2023-04-29T18:54:39.948Z,9.33
2023-04-29T18:59:41.589Z,14.23
2023-04-29T19:04:43.519Z,11.43
2023-04-29T19:09:45.324Z,11.60
2023-04-29T19:14:47.781Z,9.30
2023-04-29T19:19:49.605Z,11.37
2023-04-29T19:24:51.309Z,11.30
2023-04-29T19:29:54.363Z,10.13
2023-04-29T19:34:56.075Z,11.47
2023-04-29T19:39:57.668Z,11.07
2023-04-29T19:44:59.384Z,12.47
2023-04-29T19:50:01.263Z,12.67
2023-04-29T19:55:03.814Z,12.75
2023-04-29T20:00:09.630Z,11.10
2023-04-29T20:05:11.631Z,12.90
2023-04-29T20:10:13.299Z,10.53
2023-04-29T20:15:14.883Z,10.70
2023-04-29T20:20:16.962Z,13.63
2023-04-29T20:25:19.602Z,15.57
2023-04-29T20:30:21.706Z,11.60
2023-04-29T20:35:23.473Z,13.23
2023-04-29T20:40:25.429Z,11.90
2023-04-29T20:45:27.066Z,11.50
2023-04-29T20:50:28.696Z,11.63
2023-04-29T20:55:30.329Z,10.93
2023-04-29T21:00:32.147Z,9.90
2023-04-29T21:05:36.959Z,9.60
2023-04-29T21:10:39.068Z,11.37
2023-04-29T21:15:40.668Z,10.87
2023-04-29T21:20:42.474Z,13.47
2023-04-29T21:25:44.113Z,9.43
2023-04-29T21:30:45.847Z,9.90
2023-04-29T21:35:51.322Z,9.17
2023-04-29T21:40:52.908Z,10.30
2023-04-29T21:45:54.973Z,11.80
2023-04-29T21:50:56.702Z,11.20
2023-04-29T21:55:58.281Z,11.80
2023-04-29T22:01:05.511Z,12.07
2023-04-29T22:06:07.219Z,11.70
2023-04-29T22:11:08.931Z,11.77
2023-04-29T22:16:11.050Z,9.33
2023-04-29T22:21:12.763Z,10.63
2023-04-29T22:26:14.764Z,11.07
2023-04-29T22:31:17.042Z,9.53
2023-04-29T22:36:18.875Z,11.07
2023-04-29T22:41:21.745Z,10.90
2023-04-29T22:46:26.783Z,11.83
2023-04-29T22:51:28.474Z,11.77
2023-04-29T22:56:30.174Z,15.30
2023-04-29T23:01:32.240Z,12.30
2023-04-29T23:06:35.111Z,12.13
2023-04-29T23:11:39.116Z,11.17
2023-04-29T23:16:41.542Z,12.23
2023-04-29T23:21:43.196Z,11.07
2023-04-29T23:26:44.947Z,16.03
2023-04-29T23:31:46.700Z,15.30
2023-04-29T23:36:48.366Z,12.33
2023-04-29T23:41:50.066Z,10.57
2023-04-29T23:46:51.613Z,13.60
2023-04-29T23:51:53.158Z,10.73
2023-04-29T23:56:54.919Z,12.33
